Time;durP1;ratioP1;P1;durP2;ratioP2;P2;SDS_P1;SDS_P2;PMS_P1;PMS_P2;Temp;Humidity;BMP_temperature;BMP_pressure;BME280_temperature;BME280_humidity;BME280_pressure;Samples;Min_cycle;Max_cycle;Signal;HPM_P1;HPM_P2
2021/10/31 00:01:28;;;;;;;35.78;20.63;;;;;;;8.76;94.46;99115.47;5079911;28;20051;-93
2021/10/31 00:03:56;;;;;;;40.53;21.05;;;;;;;8.87;94.45;99127.66;5081513;28;20041;-96
2021/10/31 00:06:31;;;;;;;39.60;21.50;;;;;;;8.86;94.51;99125.91;5083899;28;20394;-92
2021/10/31 00:09:18;;;;;;;38.70;22.05;;;;;;;8.70;94.83;99104.94;5054583;28;20041;-95
2021/10/31 00:11:43;;;;;;;36.75;20.55;;;;;;;8.60;93.97;99103.28;5077420;28;20106;-95
2021/10/31 00:14:09;;;;;;;39.08;22.80;;;;;;;8.51;94.48;99100.78;5084162;28;20052;-95
2021/10/31 00:16:35;;;;;;;38.90;21.63;;;;;;;8.54;94.79;99111.31;5080107;28;20119;-95
2021/10/31 00:19:01;;;;;;;39.22;22.40;;;;;;;8.54;95.92;99108.69;5078489;28;20117;-93
2021/10/31 00:21:29;;;;;;;37.95;22.25;;;;;;;8.45;95.97;99084.94;5073644;28;20036;-94
2021/10/31 00:23:55;;;;;;;41.33;22.10;;;;;;;8.51;95.99;99098.13;5076925;28;20045;-94
2021/10/31 00:26:22;;;;;;;43.72;21.58;;;;;;;8.65;96.08;99109.41;5062486;28;20045;-94
2021/10/31 00:28:49;;;;;;;41.75;22.83;;;;;;;8.62;95.32;99107.69;5069048;28;20502;-96
2021/10/31 00:31:14;;;;;;;43.40;22.77;;;;;;;8.63;95.20;99103.25;5062104;28;20094;-94
2021/10/31 00:33:40;;;;;;;40.50;20.90;;;;;;;8.63;95.13;99066.13;5066919;28;20052;-93
2021/10/31 00:36:06;;;;;;;37.63;21.52;;;;;;;8.93;94.62;99098.41;5066147;28;20116;-94
2021/10/31 00:38:34;;;;;;;40.88;22.83;;;;;;;8.84;94.03;99080.84;5066354;28;20080;-94
2021/10/31 00:41:00;;;;;;;41.78;22.55;;;;;;;8.67;94.81;99069.63;5066367;28;20036;-93
2021/10/31 00:43:26;;;;;;;38.97;21.67;;;;;;;8.57;94.83;99064.47;5066330;28;20033;-94
2021/10/31 00:45:51;;;;;;;44.85;22.88;;;;;;;8.59;95.57;99089.19;5061383;28;20045;-95
2021/10/31 00:48:18;;;;;;;40.65;22.85;;;;;;;8.48;96.63;99064.59;5071368;28;20513;-94
2021/10/31 00:50:48;;;;;;;44.53;23.23;;;;;;;8.52;96.49;99081.31;5068231;28;20052;-93
2021/10/31 00:53:14;;;;;;;43.95;23.25;;;;;;;8.48;95.70;99055.75;5065653;28;20033;-92
2021/10/31 00:55:43;;;;;;;39.80;22.13;;;;;;;8.61;95.80;99083.88;5066159;28;20044;-94
2021/10/31 01:01:11;;;;;;;40.42;21.10;;;;;;;8.54;95.45;99055.66;5107793;27;20383;-94
2021/10/31 01:03:38;;;;;;;39.95;22.08;;;;;;;8.58;95.81;99060.03;5048290;28;20049;-95
2021/10/31 01:06:37;;;;;;;37.63;20.88;;;;;;;8.57;95.30;99051.22;5062174;28;20592;-93
2021/10/31 01:09:19;;;;;;;39.17;21.13;;;;;;;8.55;94.96;99042.41;5052285;28;20045;-94
2021/10/31 01:11:56;;;;;;;38.00;20.67;;;;;;;8.54;95.07;99053.88;5059325;28;20053;-94
2021/10/31 01:14:46;;;;;;;38.58;21.83;;;;;;;8.51;95.08;99053.94;5061480;28;20402;-94
2021/10/31 01:17:37;;;;;;;41.60;22.30;;;;;;;8.42;95.62;99047.00;5065734;28;20075;-94
2021/10/31 01:20:14;;;;;;;38.90;21.77;;;;;;;8.33;96.04;99036.50;5048781;28;20041;-94
2021/10/31 01:23:02;;;;;;;42.00;21.38;;;;;;;8.40;96.08;99042.59;5057597;28;20044;-95
2021/10/31 01:25:52;;;;;;;36.40;20.13;;;;;;;8.50;96.19;99048.66;5053278;28;20042;-95
2021/10/31 01:28:34;;;;;;;40.75;22.35;;;;;;;8.56;96.24;99044.13;5051470;28;20376;-92
2021/10/31 01:31:12;;;;;;;38.05;21.55;;;;;;;8.36;96.09;99012.59;5060554;28;20064;-95
2021/10/31 01:33:47;;;;;;;38.95;22.92;;;;;;;8.34;96.49;99032.06;5053642;28;20033;-94
2021/10/31 01:36:25;;;;;;;41.38;22.35;;;;;;;8.44;97.12;99052.28;5063732;28;20064;-93
2021/10/31 01:39:03;;;;;;;45.17;22.75;;;;;;;8.20;97.52;99019.88;5052968;28;20499;-95
2021/10/31 01:41:42;;;;;;;47.33;23.52;;;;;;;8.28;97.79;99034.78;5055806;28;20128;-93
2021/10/31 01:44:22;;;;;;;41.65;23.40;;;;;;;8.37;98.15;99051.47;5056919;28;20045;-94
2021/10/31 01:46:59;;;;;;;42.53;22.65;;;;;;;8.28;98.49;99043.63;5061261;28;20041;-93
2021/10/31 01:49:41;;;;;;;46.58;23.77;;;;;;;8.16;98.36;99025.25;5063617;28;20437;-95
2021/10/31 01:52:13;;;;;;;49.83;24.45;;;;;;;8.19;98.56;99020.78;5050843;28;20049;-96
2021/10/31 01:54:46;;;;;;;44.83;23.88;;;;;;;8.20;98.17;99041.09;5052523;28;20128;-94
2021/10/31 01:57:18;;;;;;;40.90;21.58;;;;;;;8.38;97.99;99061.16;5057074;28;20056;-93
2021/10/31 01:59:53;;;;;;;41.63;22.73;;;;;;;8.12;97.81;99020.88;5056578;28;20063;-94
2021/10/31 02:02:24;;;;;;;43.00;23.45;;;;;;;8.15;97.97;99034.06;5053207;28;20068;-94
2021/10/31 02:04:55;;;;;;;40.40;20.52;;;;;;;8.22;97.80;99051.66;5062505;28;20044;-93
2021/10/31 02:07:23;;;;;;;40.20;21.95;;;;;;;8.03;97.46;99025.41;5049401;28;20515;-93
2021/10/31 02:09:51;;;;;;;39.25;21.23;;;;;;;7.94;97.36;99025.53;5049630;28;20037;-95
2021/10/31 02:12:21;;;;;;;41.00;22.00;;;;;;;8.00;98.63;99032.50;5041453;28;20103;-94
2021/10/31 02:14:47;;;;;;;;;;;;;;;8.05;98.50;99043.94;5049128;28;20037;-95
2021/10/31 02:17:17;;;;;;;36.38;18.83;;;;;;;7.84;98.60;99007.13;5047048;28;20321;-95
2021/10/31 02:19:44;;;;;;;;;;;;;;;7.98;98.68;99044.88;5044376;28;20041;-94
2021/10/31 02:22:20;;;;;;;37.53;19.75;;;;;;;7.82;98.12;99018.59;5039058;28;19944;-96
2021/10/31 02:24:48;;;;;;;36.90;20.85;;;;;;;7.90;98.78;99039.69;5040282;28;20180;-95
2021/10/31 02:27:19;;;;;;;38.35;21.23;;;;;;;7.75;98.96;99005.47;5041011;28;20044;-95
2021/10/31 02:29:50;;;;;;;40.17;21.35;;;;;;;7.72;99.00;99013.41;5038469;28;20052;-95
2021/10/31 02:32:19;;;;;;;39.80;21.27;;;;;;;7.90;99.42;99033.53;5037874;28;20045;-94
2021/10/31 02:34:45;;;;;;;37.55;20.25;;;;;;;7.76;100.00;99001.91;5041811;28;20049;-95
2021/10/31 02:37:12;;;;;;;39.33;21.10;;;;;;;7.81;100.00;98998.31;5048251;28;20048;-94
2021/10/31 02:39:39;;;;;;;42.42;21.95;;;;;;;7.89;100.00;98997.34;5050585;28;20065;-94
2021/10/31 02:42:07;;;;;;;41.50;20.50;;;;;;;7.90;100.00;99005.28;5038605;28;20045;-94
2021/10/31 02:44:33;;;;;;;40.08;22.08;;;;;;;7.99;100.00;99015.75;5047939;28;20076;-94
2021/10/31 02:47:00;;;;;;;42.33;22.52;;;;;;;7.84;99.40;98996.53;5039771;28;20037;-92
2021/10/31 02:49:28;;;;;;;40.55;20.92;;;;;;;7.94;99.67;99019.34;5047610;28;20390;-94
2021/10/31 02:51:59;;;;;;;38.95;21.27;;;;;;;7.84;99.53;99008.00;5034020;28;20042;-94
2021/10/31 02:54:45;;;;;;;37.03;21.73;;;;;;;7.79;99.19;99009.81;5046902;28;20773;-94
2021/10/31 02:57:20;;;;;;;35.53;20.63;;;;;;;7.73;99.08;99009.91;5043086;28;20486;-95
2021/10/31 02:59:50;;;;;;;41.60;22.13;;;;;;;7.81;98.88;99027.44;5047754;28;20049;-94
2021/10/31 03:02:17;;;;;;;38.67;22.20;;;;;;;7.68;99.28;99004.66;5039180;28;20045;-95
2021/10/31 03:04:44;;;;;;;34.35;19.85;;;;;;;7.72;99.13;99013.41;5042074;28;20041;-96
2021/10/31 03:07:12;;;;;;;42.40;21.30;;;;;;;7.68;98.84;99007.31;5039449;28;20033;-94
2021/10/31 03:09:43;;;;;;;38.10;21.80;;;;;;;7.67;98.99;99016.13;5051793;28;20075;-94
2021/10/31 03:12:09;;;;;;;37.42;20.75;;;;;;;7.63;99.11;99013.53;5043205;28;20040;-95
2021/10/31 03:14:37;;;;;;;36.63;20.55;;;;;;;7.51;98.78;98993.41;5043957;28;20048;-95
2021/10/31 03:17:04;;;;;;;42.75;22.25;;;;;;;7.60;99.04;99017.97;5048677;28;20498;-94
2021/10/31 03:19:30;;;;;;;39.00;21.98;;;;;;;7.64;99.81;99026.75;5040433;28;20463;-94
2021/10/31 03:21:56;;;;;;;37.30;20.55;;;;;;;7.60;99.36;99031.19;5047440;28;20057;-93
2021/10/31 03:24:22;;;;;;;42.90;20.35;;;;;;;7.45;99.91;99009.34;5037366;28;20045;-94
2021/10/31 03:26:50;;;;;;;40.72;21.70;;;;;;;7.56;100.00;99028.59;5039526;28;20041;-94
2021/10/31 03:29:16;;;;;;;41.55;21.15;;;;;;;7.37;100.00;98983.84;5041146;28;20072;-93
2021/10/31 03:31:44;;;;;;;44.80;22.88;;;;;;;7.37;100.00;98989.13;5043689;28;20052;-94
2021/10/31 03:34:10;;;;;;;43.08;22.48;;;;;;;7.41;100.00;98993.47;5038791;28;20042;-94
2021/10/31 03:36:36;;;;;;;41.78;23.55;;;;;;;7.51;100.00;98996.03;5039311;28;20372;-94
2021/10/31 03:39:02;;;;;;;47.88;25.17;;;;;;;7.75;100.00;99013.41;5039107;28;20041;-94
2021/10/31 03:41:28;;;;;;;47.22;25.80;;;;;;;7.77;100.00;99003.69;5039458;28;20064;-95
2021/10/31 03:43:54;;;;;;;50.70;24.75;;;;;;;7.70;100.00;98994.03;5049789;28;20436;-95
2021/10/31 03:46:20;;;;;;;55.40;28.30;;;;;;;7.72;100.00;99006.38;5037583;28;20052;-93
2021/10/31 03:48:48;;;;;;;48.50;24.80;;;;;;;7.66;100.00;98987.06;5044733;28;20049;-95
2021/10/31 03:51:14;;;;;;;41.95;22.08;;;;;;;7.67;100.00;98987.00;5042557;28;20467;-94
2021/10/31 03:53:40;;;;;;;47.20;24.95;;;;;;;7.88;100.00;99022.94;5036692;28;20056;-95
2021/10/31 03:56:07;;;;;;;43.58;23.15;;;;;;;7.86;100.00;99021.22;5041108;28;20037;-94
2021/10/31 03:58:33;;;;;;;52.75;24.08;;;;;;;7.69;99.95;98995.81;5035416;28;20041;-94
2021/10/31 04:01:00;;;;;;;40.30;21.83;;;;;;;7.81;99.91;99027.44;5034978;28;20060;-94
2021/10/31 04:03:26;;;;;;;40.13;22.25;;;;;;;7.59;100.00;99008.28;5040584;28;20034;-94
2021/10/31 04:05:54;;;;;;;42.55;23.85;;;;;;;7.64;100.00;99028.53;5039627;28;20053;-95
2021/10/31 04:08:22;;;;;;;40.08;22.88;;;;;;;7.54;100.00;99023.31;5037958;28;20553;-96
2021/10/31 04:10:51;;;;;;;40.70;21.35;;;;;;;7.55;99.68;99042.75;5045894;28;20033;-95
2021/10/31 04:13:18;;;;;;;36.63;20.30;;;;;;;7.43;99.42;99030.50;5039489;28;20049;-96
2021/10/31 04:15:44;;;;;;;37.78;20.88;;;;;;;7.41;98.47;99037.56;5036036;28;20045;-95
2021/10/31 04:18:10;;;;;;;40.35;20.65;;;;;;;7.28;98.50;99035.94;5036931;28;20045;-94
2021/10/31 04:20:36;;;;;;;38.05;20.95;;;;;;;7.28;99.24;99049.19;5044962;28;20128;-94
2021/10/31 04:23:05;;;;;;;40.17;21.38;;;;;;;7.19;99.76;99039.56;5039796;28;20119;-96
2021/10/31 04:25:31;;;;;;;40.92;21.02;;;;;;;7.25;99.30;99043.94;5036389;28;20137;-93
2021/10/31 04:27:57;;;;;;;38.92;21.40;;;;;;;6.97;99.96;99007.16;5037241;28;20491;-95
2021/10/31 04:30:24;;;;;;;44.53;23.33;;;;;;;7.05;100.00;99023.81;5043279;28;20040;-94
2021/10/31 04:32:49;;;;;;;43.42;23.65;;;;;;;6.99;100.00;99037.09;5037858;28;20132;-95
2021/10/31 04:35:16;;;;;;;42.03;21.92;;;;;;;6.93;100.00;99029.22;5036510;28;20095;-93
2021/10/31 04:37:45;;;;;;;39.90;21.95;;;;;;;6.85;100.00;99036.31;5051233;28;20045;-95
2021/10/31 04:40:16;;;;;;;38.90;20.95;;;;;;;6.83;100.00;99039.00;5041759;28;20046;-94
2021/10/31 04:42:45;;;;;;;39.78;22.13;;;;;;;6.68;99.83;99028.50;5039042;28;20080;-95
2021/10/31 04:45:11;;;;;;;40.63;20.30;;;;;;;6.66;99.87;99025.00;5036558;28;20046;-94
2021/10/31 04:47:37;;;;;;;37.70;21.60;;;;;;;6.77;100.00;99052.25;5037567;28;20068;-94
2021/10/31 04:50:04;;;;;;;39.83;21.15;;;;;;;6.67;99.76;99047.91;5035861;28;20760;-93
2021/10/31 04:52:31;;;;;;;38.90;20.75;;;;;;;6.58;99.92;99044.44;5036892;28;20037;-94
2021/10/31 04:54:57;;;;;;;38.55;20.83;;;;;;;6.62;99.79;99045.31;5039141;28;20088;-94
2021/10/31 04:57:25;;;;;;;42.70;23.02;;;;;;;6.66;100.00;99054.97;5036253;28;20041;-94
2021/10/31 04:59:51;;;;;;;41.63;22.20;;;;;;;6.58;100.00;99028.56;5036414;28;20038;-94
2021/10/31 05:02:17;;;;;;;39.90;21.60;;;;;;;6.60;100.00;99028.56;5040715;28;20895;-95
2021/10/31 05:04:43;;;;;;;44.75;21.83;;;;;;;6.72;100.00;99051.38;5044033;28;20112;-95
2021/10/31 05:07:09;;;;;;;42.10;22.38;;;;;;;6.68;100.00;99041.72;5034466;28;20049;-94
2021/10/31 05:09:35;;;;;;;37.30;20.85;;;;;;;6.67;100.00;99045.25;5043361;28;20051;-94
2021/10/31 05:12:02;;;;;;;43.30;22.08;;;;;;;6.74;100.00;99052.25;5038855;28;20045;-94
2021/10/31 05:14:30;;;;;;;42.45;22.02;;;;;;;6.61;100.00;99027.69;5040252;28;20520;-94
2021/10/31 05:16:57;;;;;;;46.45;22.88;;;;;;;6.74;100.00;99045.22;5038058;28;20045;-95
2021/10/31 05:19:23;;;;;;;44.03;21.40;;;;;;;6.63;100.00;99025.03;5050487;28;20144;-95
2021/10/31 05:21:49;;;;;;;40.33;22.17;;;;;;;6.66;100.00;99020.59;5047426;28;20523;-94
2021/10/31 05:24:15;;;;;;;51.22;25.52;;;;;;;6.80;100.00;99017.84;5041060;28;20042;-93
2021/10/31 05:26:41;;;;;;;54.40;25.42;;;;;;;6.97;100.00;99029.16;5038037;28;20430;-94
2021/10/31 05:29:07;;;;;;;54.28;26.63;;;;;;;7.06;100.00;99028.22;5040088;28;20136;-94
2021/10/31 05:31:39;;;;;;;55.25;28.17;;;;;;;7.23;100.00;99037.78;5042933;28;20044;-94
2021/10/31 05:34:05;;;;;;;57.97;28.70;;;;;;;7.33;100.00;99028.84;5049000;28;20056;-94
2021/10/31 05:36:34;;;;;;;56.88;27.95;;;;;;;7.28;100.00;99001.56;5038897;28;20483;-94
2021/10/31 05:39:00;;;;;;;57.45;28.08;;;;;;;7.49;100.00;99030.44;5035827;28;20049;-94
2021/10/31 05:41:26;;;;;;;53.72;26.77;;;;;;;7.50;100.00;99018.94;5036518;28;20061;-94
2021/10/31 05:43:52;;;;;;;57.50;29.38;;;;;;;7.49;100.00;99011.06;5040564;28;20049;-94
2021/10/31 05:46:18;;;;;;;61.17;28.60;;;;;;;7.40;100.00;98998.81;5045485;28;20073;-95
2021/10/31 05:48:45;;;;;;;60.35;28.80;;;;;;;7.39;100.00;99012.91;5040801;28;20099;-94
2021/10/31 05:51:11;;;;;;;57.67;27.92;;;;;;;7.41;100.00;99040.22;5039071;28;20084;-95
2021/10/31 05:53:37;;;;;;;53.63;27.48;;;;;;;7.30;100.00;99016.53;5044707;28;20065;-94
2021/10/31 05:56:05;;;;;;;51.70;27.60;;;;;;;7.31;100.00;99006.84;5043829;28;20487;-93
2021/10/31 05:58:30;;;;;;;53.05;26.63;;;;;;;7.32;100.00;99008.56;5049230;28;20072;-94
2021/10/31 06:00:56;;;;;;;51.15;26.08;;;;;;;7.52;100.00;99034.81;5043110;28;20049;-95
2021/10/31 06:03:23;;;;;;;47.88;25.33;;;;;;;7.39;100.00;99003.22;5044733;28;20041;-94
2021/10/31 06:05:50;;;;;;;47.38;24.73;;;;;;;7.44;100.00;99000.53;5046096;28;20042;-95
2021/10/31 06:08:17;;;;;;;46.15;23.20;;;;;;;7.62;100.00;99020.59;5038219;28;20048;-94
2021/10/31 06:10:44;;;;;;;49.55;24.77;;;;;;;7.73;100.00;99031.94;5038844;28;20037;-94
2021/10/31 06:13:10;;;;;;;51.92;26.25;;;;;;;7.82;100.00;99044.19;5038086;28;20029;-94
2021/10/31 06:15:36;;;;;;;48.50;23.75;;;;;;;7.78;100.00;99023.94;5050513;28;20128;-94
2021/10/31 06:18:02;;;;;;;47.05;23.95;;;;;;;7.90;100.00;99037.03;5037710;28;20065;-93
2021/10/31 06:20:28;;;;;;;49.90;26.65;;;;;;;7.77;100.00;99008.97;5043502;28;20041;-94
2021/10/31 06:22:56;;;;;;;58.28;29.15;;;;;;;7.83;100.00;99027.44;5050759;28;20402;-94
2021/10/31 06:25:22;;;;;;;54.78;27.45;;;;;;;7.79;99.76;99023.06;5046429;28;20073;-96
2021/10/31 06:27:49;;;;;;;53.63;27.85;;;;;;;7.83;99.17;99024.78;5047610;28;20091;-93
2021/10/31 06:30:14;;;;;;;55.60;28.98;;;;;;;7.77;98.80;99016.91;5037968;28;20050;-95
2021/10/31 06:32:41;;;;;;;50.70;27.70;;;;;;;7.82;98.82;99031.81;5046294;28;20124;-93
2021/10/31 06:35:08;;;;;;;52.03;27.33;;;;;;;7.94;98.69;99038.75;5042101;28;20491;-94
2021/10/31 06:37:36;;;;;;;44.92;24.42;;;;;;;7.89;99.31;99014.09;5041093;28;20128;-94
2021/10/31 06:40:05;;;;;;;44.43;22.60;;;;;;;8.18;99.81;99044.66;5042931;28;20038;-96
2021/10/31 06:42:30;;;;;;;43.40;22.45;;;;;;;8.29;99.28;99031.25;5037689;28;20033;-94
2021/10/31 06:44:56;;;;;;;44.55;22.25;;;;;;;8.48;98.09;99037.19;5037887;28;20076;-95
2021/10/31 06:47:23;;;;;;;44.97;22.63;;;;;;;8.58;97.05;99038.81;5036979;28;20402;-94
2021/10/31 06:49:49;;;;;;;40.70;21.75;;;;;;;8.57;96.83;99039.75;5037100;28;20056;-94
2021/10/31 06:52:15;;;;;;;39.83;20.52;;;;;;;8.41;97.28;99023.16;5044839;28;20104;-95
2021/10/31 06:54:42;;;;;;;41.42;21.20;;;;;;;8.52;97.20;99045.09;5037644;28;20042;-94
2021/10/31 06:57:12;;;;;;;39.60;21.88;;;;;;;8.56;97.54;99052.09;5037491;28;20486;-95
2021/10/31 06:59:56;;;;;;;46.38;23.58;;;;;;;8.24;98.23;99018.09;5049380;28;20053;-93
2021/10/31 07:02:24;;;;;;;40.50;21.85;;;;;;;8.38;97.13;99025.84;5048750;28;20183;-94
2021/10/31 07:04:51;;;;;;;39.40;20.75;;;;;;;8.35;97.02;99024.09;5053184;28;20048;-95
2021/10/31 07:07:18;;;;;;;39.50;19.35;;;;;;;8.59;96.49;99038.81;5037779;28;20091;-93
2021/10/31 07:09:45;;;;;;;43.03;22.25;;;;;;;8.52;96.63;99028.31;5042730;28;20033;-95
2021/10/31 07:12:12;;;;;;;38.05;20.50;;;;;;;8.64;96.99;99054.66;5042247;28;20049;-95
2021/10/31 07:14:38;;;;;;;45.35;23.85;;;;;;;8.52;96.17;99030.97;5037676;28;20095;-95
2021/10/31 07:17:04;;;;;;;40.97;22.70;;;;;;;8.70;96.00;99053.69;5043519;28;20069;-94
2021/10/31 07:19:30;;;;;;;42.83;22.95;;;;;;;8.69;95.95;99036.88;5038159;28;20503;-93
2021/10/31 07:21:57;;;;;;;45.08;23.60;;;;;;;8.72;95.69;99015.66;5045512;28;20084;-95
2021/10/31 07:24:23;;;;;;;41.13;22.13;;;;;;;8.88;94.64;99012.75;5052917;28;20042;-93
2021/10/31 07:26:49;;;;;;;40.25;21.45;;;;;;;9.25;94.59;99032.44;5038915;28;20041;-94
2021/10/31 07:29:17;;;;;;;37.40;19.63;;;;;;;9.35;93.41;99003.09;5042096;28;20049;-94
2021/10/31 07:31:46;;;;;;;41.25;20.63;;;;;;;9.41;93.12;99002.94;5039437;28;20152;-95
2021/10/31 07:34:12;;;;;;;40.78;21.10;;;;;;;9.52;93.63;99016.94;5022130;28;20368;-93
2021/10/31 07:36:39;;;;;;;40.88;21.23;;;;;;;9.76;93.19;99035.91;5054402;28;20095;-94
2021/10/31 07:39:08;;;;;;;43.33;25.33;;;;;;;9.60;91.39;99014.97;5054403;28;20064;-95
2021/10/31 07:41:34;;;;;;;43.47;23.08;;;;;;;9.68;90.47;99011.31;5058221;28;20064;-95
2021/10/31 07:44:00;;;;;;;43.50;22.08;;;;;;;9.61;91.56;99021.19;5044631;28;20045;-93
2021/10/31 07:46:28;;;;;;;41.60;22.98;;;;;;;9.56;91.17;99015.94;5039106;28;20107;-94
2021/10/31 07:48:56;;;;;;;42.15;22.52;;;;;;;9.54;90.56;99004.50;5037323;28;20042;-95
2021/10/31 07:51:23;;;;;;;37.63;21.05;;;;;;;9.73;90.44;99020.94;5037962;28;20042;-94
2021/10/31 07:53:49;;;;;;;41.70;21.92;;;;;;;9.46;91.00;98991.34;5037631;28;20407;-95
2021/10/31 07:56:16;;;;;;;40.15;20.98;;;;;;;9.48;91.45;99004.59;5036730;28;20084;-95
2021/10/31 07:58:44;;;;;;;40.72;22.83;;;;;;;9.39;92.81;99012.72;5045647;28;20064;-93
2021/10/31 08:01:11;;;;;;;42.70;22.10;;;;;;;9.37;93.16;99014.56;5036036;28;20140;-93
2021/10/31 08:03:38;;;;;;;40.10;21.02;;;;;;;9.56;91.58;99031.88;5036204;28;20076;-93
2021/10/31 08:06:04;;;;;;;42.95;21.92;;;;;;;9.63;91.07;99020.25;5036117;28;20049;-94
2021/10/31 08:08:30;;;;;;;39.05;21.77;;;;;;;9.73;89.68;98985.53;5036563;28;20045;-94
2021/10/31 08:10:56;;;;;;;44.22;21.40;;;;;;;9.75;89.84;99005.84;5045330;28;20083;-94
2021/10/31 08:13:24;;;;;;;42.65;21.90;;;;;;;9.97;88.96;98998.31;5038543;28;20495;-94
2021/10/31 08:15:51;;;;;;;42.15;21.58;;;;;;;10.12;89.52;98990.91;5042325;28;20046;-94
2021/10/31 08:18:17;;;;;;;39.38;21.08;;;;;;;10.48;87.42;99011.41;5035536;28;20045;-95
2021/10/31 08:20:45;;;;;;;37.53;21.48;;;;;;;10.63;87.06;98994.22;5035380;28;20128;-93
2021/10/31 08:23:12;;;;;;;36.60;20.25;;;;;;;10.80;84.97;98984.94;5038442;28;20064;-94
2021/10/31 08:25:38;;;;;;;40.28;20.60;;;;;;;11.13;84.93;99001.88;5040044;28;20045;-94
2021/10/31 08:28:08;;;;;;;36.33;20.77;;;;;;;11.37;82.80;98988.84;5054151;28;20458;-93
2021/10/31 08:30:34;;;;;;;36.90;20.30;;;;;;;11.26;82.63;98979.34;5036869;28;20057;-94
2021/10/31 08:33:07;;;;;;;37.72;19.77;;;;;;;11.51;81.95;98994.66;5035366;28;20049;-95
2021/10/31 08:35:33;;;;;;;34.67;19.33;;;;;;;11.41;81.27;98967.41;5030571;28;20044;-94
2021/10/31 08:38:01;;;;;;;38.08;19.83;;;;;;;11.63;81.11;98969.47;5035295;28;20068;-93
2021/10/31 08:40:27;;;;;;;34.65;18.40;;;;;;;11.85;80.72;98969.72;5043297;28;20040;-94
2021/10/31 08:42:53;;;;;;;38.90;20.65;;;;;;;11.92;79.70;98981.97;5047976;28;20507;-95
2021/10/31 08:45:19;;;;;;;37.80;19.52;;;;;;;12.20;78.52;98983.84;5047947;28;20045;-93
2021/10/31 08:47:45;;;;;;;36.30;19.58;;;;;;;12.39;78.40;98971.69;5044271;28;20049;-93
2021/10/31 08:50:11;;;;;;;36.47;19.27;;;;;;;12.51;77.90;98967.75;5035436;28;20051;-94
2021/10/31 08:52:37;;;;;;;34.17;19.98;;;;;;;12.71;77.64;98976.00;5035195;28;20048;-93
2021/10/31 08:55:06;;;;;;;41.40;21.95;;;;;;;12.98;76.54;98981.34;5036032;28;20045;-94
2021/10/31 08:57:33;;;;;;;38.55;20.88;;;;;;;12.89;76.10;98963.84;5038141;28;20509;-95
2021/10/31 08:59:59;;;;;;;34.15;20.10;;;;;;;12.99;76.09;98985.78;5036982;28;20050;-94
2021/10/31 09:02:25;;;;;;;35.55;20.02;;;;;;;13.10;74.94;98977.41;5036591;28;20064;-94
2021/10/31 09:04:51;;;;;;;36.97;20.92;;;;;;;12.84;75.06;98959.59;5039157;28;20080;-93
2021/10/31 09:07:17;;;;;;;37.25;20.67;;;;;;;13.04;75.55;98958.91;5038696;28;20048;-95
2021/10/31 09:09:43;;;;;;;36.55;20.52;;;;;;;13.21;74.10;98961.88;5038587;28;20033;-94
2021/10/31 09:12:13;;;;;;;32.17;19.45;;;;;;;13.41;74.08;98981.72;5037674;28;20071;-94
2021/10/31 09:14:40;;;;;;;34.83;20.20;;;;;;;13.64;73.42;98972.84;5037391;28;20132;-94
2021/10/31 09:17:07;;;;;;;37.13;19.88;;;;;;;13.85;72.22;98972.06;5048293;28;20053;-94
2021/10/31 09:19:33;;;;;;;34.53;20.27;;;;;;;13.84;71.31;98950.75;5037057;28;20034;-96
2021/10/31 09:21:59;;;;;;;37.20;20.70;;;;;;;13.67;73.01;98952.25;5040824;28;20176;-95
2021/10/31 09:24:27;;;;;;;37.10;20.63;;;;;;;13.62;72.35;98959.56;5042404;28;20045;-94
2021/10/31 09:26:53;;;;;;;36.28;20.20;;;;;;;13.73;72.64;98962.72;5041091;28;20107;-96
2021/10/31 09:29:20;;;;;;;32.72;18.90;;;;;;;14.14;71.56;98948.72;5041832;28;20044;-95
2021/10/31 09:31:46;;;;;;;35.42;19.50;;;;;;;14.28;70.45;98919.63;5041560;28;20054;-94
2021/10/31 09:34:13;;;;;;;35.95;20.17;;;;;;;14.57;69.80;98925.63;5039502;28;20057;-95
2021/10/31 09:36:39;;;;;;;34.22;19.52;;;;;;;14.86;69.06;98920.91;5040858;28;20042;-94
2021/10/31 09:39:07;;;;;;;32.28;19.30;;;;;;;14.95;68.50;98899.94;5040791;28;20042;-94
2021/10/31 09:41:33;;;;;;;34.65;19.63;;;;;;;15.20;67.43;98901.53;5042899;28;20045;-94
2021/10/31 09:44:12;;;;;;;30.80;17.80;;;;;;;15.41;65.75;98897.91;5061624;28;20045;-95
2021/10/31 09:46:41;;;;;;;25.33;15.73;;;;;;;15.51;64.15;98868.91;5064359;28;20041;-96
2021/10/31 09:49:08;;;;;;;38.83;20.15;;;;;;;15.81;65.00;98876.53;5061461;28;20051;-96
2021/10/31 09:51:34;;;;;;;30.00;15.73;;;;;;;15.17;64.05;98864.19;5051583;28;20507;-95
2021/10/31 09:54:01;;;;;;;26.92;15.02;;;;;;;15.06;65.27;98861.13;5043323;28;20046;-94
2021/10/31 10:05:00;;;;;;;32.05;17.48;;;;;;;14.94;67.27;98898.22;5004129;28;20053;-95
2021/10/31 10:07:34;;;;;;;32.27;16.83;;;;;;;14.63;67.32;98868.31;5026099;28;20529;-94
2021/10/31 10:10:00;;;;;;;31.95;17.70;;;;;;;14.42;68.63;98852.19;5019812;28;20370;-93
2021/10/31 10:12:29;;;;;;;32.20;18.55;;;;;;;14.35;69.71;98842.66;5024732;28;20046;-93
2021/10/31 10:15:07;;;;;;;418.92;131.15;;;;;;;14.74;69.53;98858.88;5021938;28;20058;-95
2021/10/31 10:17:48;;;;;;;66.07;29.02;;;;;;;14.84;68.47;98848.66;5025353;28;20403;-95
2021/10/31 10:20:20;;;;;;;41.95;24.73;;;;;;;15.19;66.61;98832.84;5030203;28;20068;-95
2021/10/31 10:22:50;;;;;;;34.05;18.65;;;;;;;15.52;65.23;98853.69;5030279;28;20508;-95
2021/10/31 10:25:16;;;;;;;35.20;18.48;;;;;;;15.58;66.12;98818.56;5026464;28;20561;-94
2021/10/31 10:27:49;;;;;;;30.25;17.40;;;;;;;15.60;66.58;98803.28;5022090;28;20049;-94
2021/10/31 10:30:17;;;;;;;33.90;18.42;;;;;;;15.84;64.41;98816.50;5028505;28;20049;-94
2021/10/31 10:32:52;;;;;;;28.98;16.15;;;;;;;15.71;62.77;98798.31;5018476;28;20061;-95
2021/10/31 10:35:24;;;;;;;29.52;16.50;;;;;;;15.84;63.47;98811.16;5019731;28;20069;-94
2021/10/31 10:37:50;;;;;;;30.50;16.33;;;;;;;15.88;63.79;98807.38;5041320;28;20064;-94
2021/10/31 10:40:20;;;;;;;30.67;18.23;;;;;;;15.59;63.85;98807.78;5041821;28;20046;-94
2021/10/31 10:42:49;;;;;;;28.20;16.45;;;;;;;15.53;64.48;98801.84;5057359;28;20045;-93
2021/10/31 10:45:16;;;;;;;;;;;;;;;15.84;63.84;98820.06;5060994;28;20072;-94
2021/10/31 10:47:45;;;;;;;27.13;15.93;;;;;;;15.79;63.92;98766.66;5052545;28;19923;-96
2021/10/31 10:50:16;;;;;;;29.98;16.92;;;;;;;16.07;64.10;98807.31;5042273;28;20110;-94
2021/10/31 10:52:48;;;;;;;31.52;18.05;;;;;;;15.69;64.62;98784.06;5042703;28;20064;-94
2021/10/31 10:55:15;;;;;;;24.45;15.13;;;;;;;15.98;63.30;98801.50;5042411;28;20052;-95
2021/10/31 10:57:44;;;;;;;31.77;16.35;;;;;;;15.95;63.56;98782.84;5041926;28;20041;-94
2021/10/31 11:00:14;;;;;;;31.42;16.17;;;;;;;16.02;61.99;98772.69;5043140;28;20038;-95
2021/10/31 11:02:40;;;;;;;27.92;16.15;;;;;;;15.86;63.04;98786.00;5041536;28;20041;-94
2021/10/31 11:05:09;;;;;;;27.33;15.48;;;;;;;15.86;62.71;98793.16;5043737;28;20065;-95
2021/10/31 11:07:42;;;;;;;29.52;16.65;;;;;;;15.84;63.27;98763.75;5043454;28;20061;-95
2021/10/31 11:10:13;;;;;;;29.42;15.52;;;;;;;16.01;61.36;98760.25;5039913;28;20095;-95
2021/10/31 11:12:41;;;;;;;31.05;17.40;;;;;;;16.11;62.67;98753.47;5042520;28;20434;-95
2021/10/31 11:15:10;;;;;;;24.70;14.60;;;;;;;15.99;61.19;98738.84;5043581;28;20041;-94
2021/10/31 11:17:37;;;;;;;29.42;16.25;;;;;;;16.22;61.94;98735.03;5043460;28;20053;-94
2021/10/31 11:20:05;;;;;;;43.92;22.08;;;;;;;16.39;60.37;98752.06;5041772;28;20029;-94
2021/10/31 11:22:32;;;;;;;33.25;16.88;;;;;;;16.42;60.63;98741.19;5045998;28;20037;-95
2021/10/31 11:25:00;;;;;;;25.98;13.60;;;;;;;16.53;56.76;98724.53;5054526;28;20041;-93
2021/10/31 11:27:30;;;;;;;21.70;12.48;;;;;;;16.79;54.32;98750.00;5043877;28;20052;-96
2021/10/31 11:30:03;;;;;;;20.88;12.50;;;;;;;16.51;57.14;98719.22;5042919;28;20054;-96
2021/10/31 11:32:32;;;;;;;26.88;14.15;;;;;;;16.37;57.13;98705.66;5041968;28;20045;-95
2021/10/31 11:35:01;;;;;;;20.63;13.50;;;;;;;16.36;56.19;98709.28;5039996;28;20495;-96
2021/10/31 11:37:29;;;;;;;;;;;;;;;16.64;58.36;98735.56;5040872;28;20052;-95
2021/10/31 11:39:58;;;;;;;29.48;15.38;;;;;;;16.61;59.91;98717.81;5040220;28;20271;-95